Time;durP1;ratioP1;P1;durP2;ratioP2;P2;SDS_P1;SDS_P2;PMS_P1;PMS_P2;Temp;Humidity;BMP_temperature;BMP_pressure;BME280_temperature;BME280_humidity;BME280_pressure;Samples;Min_cycle;Max_cycle;Signal;HPM_P1;HPM_P2
2021/06/04 00:01:14;;;;;;;5.10;3.78;;;20.00;58.70;;;;;;5072911;28;20234;-74
2021/06/04 00:03:40;;;;;;;5.40;4.05;;;19.90;59.00;;;;;;5072472;28;20081;-75
2021/06/04 00:06:07;;;;;;;7.03;3.97;;;19.90;59.50;;;;;;5071233;28;20479;-75
2021/06/04 00:08:33;;;;;;;6.32;4.30;;;19.80;59.30;;;;;;5072245;28;20036;-75
2021/06/04 00:11:13;;;;;;;6.20;4.43;;;19.80;59.20;;;;;;5067498;28;20032;-75
2021/06/04 00:13:46;;;;;;;7.10;4.05;;;19.80;59.90;;;;;;5066299;28;20779;-75
2021/06/04 00:16:23;;;;;;;7.18;3.88;;;19.80;59.80;;;;;;5071634;28;20033;-75
2021/06/04 00:18:50;;;;;;;6.00;4.35;;;19.70;59.70;;;;;;5070956;28;20032;-75
2021/06/04 00:21:19;;;;;;;5.13;3.75;;;19.70;59.90;;;;;;5068858;28;20025;-75
2021/06/04 00:23:49;;;;;;;7.13;4.00;;;19.60;60.10;;;;;;5063690;28;20091;-75
2021/06/04 00:26:16;;;;;;;7.88;3.95;;;19.60;59.80;;;;;;5070826;28;20429;-76
2021/06/04 00:28:41;;;;;;;5.90;4.25;;;19.60;59.90;;;;;;5069129;28;20028;-75
2021/06/04 00:31:07;;;;;;;7.82;3.88;;;19.60;59.90;;;;;;5071391;28;20043;-75
2021/06/04 00:33:34;;;;;;;7.18;4.40;;;19.60;60.50;;;;;;5064269;28;20119;-75
2021/06/04 00:35:59;;;;;;;6.03;4.22;;;19.60;59.90;;;;;;5068860;28;20058;-75
2021/06/04 00:38:25;;;;;;;5.20;3.97;;;19.60;59.70;;;;;;5074938;28;20491;-75
2021/06/04 00:40:55;;;;;;;9.63;4.57;;;19.50;60.70;;;;;;5070526;28;20039;-75
2021/06/04 00:43:23;;;;;;;7.10;4.47;;;19.50;60.30;;;;;;5071945;28;20024;-75
2021/06/04 00:45:51;;;;;;;5.18;3.95;;;19.50;60.40;;;;;;5070537;28;20036;-75
2021/06/04 00:48:17;;;;;;;5.38;3.90;;;19.50;60.80;;;;;;5070827;28;20016;-75
2021/06/04 00:50:48;;;;;;;5.25;4.10;;;19.50;60.70;;;;;;5071079;28;20027;-75
2021/06/04 00:53:16;;;;;;;5.82;4.07;;;19.50;61.70;;;;;;5067119;28;20063;-75
2021/06/04 00:55:42;;;;;;;6.68;4.18;;;19.40;61.00;;;;;;5069861;28;20033;-75
2021/06/04 00:58:09;;;;;;;5.57;4.32;;;19.40;61.80;;;;;;5071123;28;20035;-75
2021/06/04 01:00:42;;;;;;;11.30;4.50;;;19.40;61.70;;;;;;5066787;28;20039;-75
2021/06/04 01:03:09;;;;;;;5.53;3.75;;;19.40;63.80;;;;;;5070599;28;20033;-75
2021/06/04 01:05:39;;;;;;;5.97;4.00;;;19.40;63.00;;;;;;5067844;28;20028;-75
2021/06/04 01:08:30;;;;;;;4.68;4.07;;;19.40;63.60;;;;;;5070876;28;20035;-75
2021/06/04 01:11:25;;;;;;;7.43;4.00;;;19.30;63.20;;;;;;5073670;28;20544;-75
2021/06/04 01:14:06;;;;;;;5.60;4.22;;;19.30;64.00;;;;;;5062649;28;20123;-75
2021/06/04 01:17:00;;;;;;;7.40;4.13;;;19.30;64.70;;;;;;5069749;28;20543;-75
2021/06/04 01:19:32;;;;;;;7.20;4.22;;;19.30;62.80;;;;;;5068617;28;20174;-75
2021/06/04 01:22:01;;;;;;;5.13;4.00;;;19.20;63.60;;;;;;5070029;28;20367;-75
2021/06/04 01:24:44;;;;;;;6.65;4.55;;;19.20;64.60;;;;;;5067190;28;20491;-75
2021/06/04 01:27:16;;;;;;;6.75;4.30;;;19.20;66.00;;;;;;5071653;28;20125;-75
2021/06/04 01:29:51;;;;;;;6.97;4.45;;;19.20;65.50;;;;;;5072846;28;20616;-75
2021/06/04 01:32:25;;;;;;;5.03;4.47;;;19.10;65.70;;;;;;5070713;28;20461;-75
2021/06/04 01:34:56;;;;;;;9.55;4.32;;;19.10;65.80;;;;;;5069421;28;20041;-75
2021/06/04 01:37:28;;;;;;;4.68;3.85;;;19.10;65.10;;;;;;5069603;28;20043;-75
2021/06/04 01:40:25;;;;;;;7.70;4.60;;;19.10;63.80;;;;;;5062520;28;20024;-75
2021/06/04 01:42:55;;;;;;;10.20;4.47;;;19.10;63.50;;;;;;5052998;28;20120;-75
2021/06/04 01:45:28;;;;;;;7.72;4.35;;;19.10;64.60;;;;;;5052045;28;20044;-76
2021/06/04 01:48:06;;;;;;;8.40;5.22;;;19.10;65.40;;;;;;5063835;28;20043;-75
2021/06/04 01:50:40;;;;;;;5.72;4.50;;;19.10;64.00;;;;;;5069278;28;20032;-75
2021/06/04 01:53:14;;;;;;;6.20;4.40;;;19.10;64.20;;;;;;5070277;28;20048;-75
2021/06/04 01:55:45;;;;;;;7.90;4.22;;;19.10;64.80;;;;;;5069261;28;20079;-75
2021/06/04 01:58:23;;;;;;;5.30;4.45;;;19.10;64.50;;;;;;5069368;28;20056;-76
2021/06/04 02:00:53;;;;;;;5.43;4.15;;;19.00;66.20;;;;;;5069890;28;20088;-75
2021/06/04 02:03:21;;;;;;;7.30;4.47;;;19.00;65.00;;;;;;5066302;28;20034;-75
2021/06/04 02:05:47;;;;;;;8.68;4.50;;;19.00;68.10;;;;;;5066021;28;20463;-75
2021/06/04 02:08:24;;;;;;;6.95;4.25;;;19.00;66.20;;;;;;5064177;28;20035;-75
2021/06/04 02:10:51;;;;;;;4.82;4.13;;;19.00;68.20;;;;;;5069370;28;20074;-75
2021/06/04 02:13:16;;;;;;;5.65;4.22;;;19.00;65.30;;;;;;5069945;28;20064;-75
2021/06/04 02:15:46;;;;;;;5.85;4.38;;;19.00;65.50;;;;;;5063304;28;20029;-75
2021/06/04 02:18:24;;;;;;;5.75;4.40;;;19.00;64.70;;;;;;5066234;28;20625;-76
2021/06/04 02:20:59;;;;;;;5.68;4.35;;;19.00;64.50;;;;;;5070149;28;20025;-75
2021/06/04 02:23:33;;;;;;;5.25;4.38;;;19.00;65.60;;;;;;5070326;28;20110;-75
2021/06/04 02:26:02;;;;;;;8.82;4.70;;;19.00;64.90;;;;;;5069668;28;20024;-75
2021/06/04 02:28:42;;;;;;;7.25;4.80;;;19.00;68.30;;;;;;5058368;28;20503;-75
2021/06/04 02:31:35;;;;;;;6.15;4.65;;;18.90;67.80;;;;;;5066632;28;20500;-76
2021/06/04 02:34:23;;;;;;;7.60;4.60;;;18.90;66.40;;;;;;5070182;28;20422;-75
2021/06/04 02:37:03;;;;;;;8.82;4.43;;;18.90;67.10;;;;;;5050733;28;20115;-75
2021/06/04 02:39:39;;;;;;;9.40;4.00;;;18.80;66.10;;;;;;5076531;28;20025;-75
2021/06/04 02:42:19;;;;;;;5.57;4.47;;;18.80;67.90;;;;;;5069020;28;20475;-75
2021/06/04 02:44:49;;;;;;;7.85;4.80;;;18.80;66.20;;;;;;5069404;28;20032;-75
2021/06/04 02:47:21;;;;;;;6.55;4.20;;;18.80;66.30;;;;;;5066816;28;20025;-75
2021/06/04 02:49:47;;;;;;;;;;;18.80;66.10;;;;;;5069545;28;20036;-75
2021/06/04 02:52:38;;;;;;;8.02;5.03;;;18.80;68.20;;;;;;5069086;28;19966;-75
2021/06/04 02:55:16;;;;;;;6.05;4.70;;;18.70;67.70;;;;;;5056613;28;20048;-75
2021/06/04 02:57:43;;;;;;;5.88;4.53;;;18.70;68.40;;;;;;5056368;28;20025;-75
2021/06/04 03:00:38;;;;;;;12.27;4.30;;;18.60;67.80;;;;;;5064090;28;20029;-75
2021/06/04 03:03:04;;;;;;;7.35;4.53;;;18.60;69.40;;;;;;5069112;28;20112;-75
2021/06/04 03:05:33;;;;;;;6.88;4.38;;;18.60;70.00;;;;;;5060172;28;20107;-75
2021/06/04 03:07:59;;;;;;;5.30;4.72;;;18.50;69.60;;;;;;5068598;28;20114;-75
2021/06/04 03:10:35;;;;;;;6.88;5.13;;;18.50;68.40;;;;;;5069779;28;20132;-75
2021/06/04 03:13:07;;;;;;;7.72;4.70;;;18.60;68.60;;;;;;5068378;28;20029;-75
2021/06/04 03:15:48;;;;;;;6.30;4.80;;;18.50;67.50;;;;;;5070525;28;20040;-75
2021/06/04 03:18:21;;;;;;;9.02;4.93;;;18.50;68.00;;;;;;5068600;28;20029;-75
2021/06/04 03:20:47;;;;;;;7.30;4.70;;;18.50;68.60;;;;;;5065220;28;20033;-75
2021/06/04 03:23:17;;;;;;;5.07;4.30;;;18.50;68.00;;;;;;5067215;28;20024;-75
2021/06/04 03:25:47;;;;;;;6.95;4.35;;;18.50;68.00;;;;;;5071857;28;20024;-75
2021/06/04 03:28:26;;;;;;;6.63;4.50;;;18.50;68.60;;;;;;5069268;28;20031;-75
2021/06/04 03:30:52;;;;;;;6.03;4.50;;;18.50;68.90;;;;;;5050638;28;20024;-75
2021/06/04 03:33:23;;;;;;;8.63;4.35;;;18.50;67.80;;;;;;5066042;28;20435;-75
2021/06/04 03:35:48;;;;;;;8.63;5.07;;;18.50;68.30;;;;;;5068253;28;20035;-75
2021/06/04 03:38:16;;;;;;;7.90;4.28;;;18.50;68.50;;;;;;5068592;28;20029;-75
2021/06/04 03:40:43;;;;;;;8.20;4.78;;;18.50;67.70;;;;;;5069254;28;20031;-75
2021/06/04 03:43:12;;;;;;;7.05;4.22;;;18.50;68.10;;;;;;5064902;28;20052;-75
2021/06/04 03:45:40;;;;;;;5.90;4.97;;;18.50;66.80;;;;;;5070604;28;20028;-75
2021/06/04 03:48:10;;;;;;;9.05;4.57;;;18.50;66.70;;;;;;5068441;28;20028;-75
2021/06/04 03:50:36;;;;;;;8.60;4.70;;;18.50;67.20;;;;;;5068716;28;20056;-75
2021/06/04 03:53:07;;;;;;;8.70;4.38;;;18.50;67.10;;;;;;5065741;28;20660;-75
2021/06/04 03:55:34;;;;;;;7.95;4.53;;;18.50;67.10;;;;;;5069528;28;20021;-75
2021/06/04 03:57:59;;;;;;;7.10;4.45;;;18.50;67.00;;;;;;5065817;28;20411;-75
2021/06/04 04:00:31;;;;;;;7.72;4.47;;;18.60;66.50;;;;;;5068829;28;20047;-75
2021/06/04 04:02:56;;;;;;;7.68;4.55;;;18.50;67.50;;;;;;5067129;28;20514;-75
2021/06/04 04:05:23;;;;;;;5.72;4.60;;;18.50;67.10;;;;;;5065974;28;20048;-75
2021/06/04 04:07:48;;;;;;;10.40;4.70;;;18.60;67.00;;;;;;5063554;28;20568;-75
2021/06/04 04:10:14;;;;;;;6.90;4.60;;;18.60;67.20;;;;;;5062229;28;20033;-75
2021/06/04 04:12:43;;;;;;;12.93;4.60;;;18.60;67.40;;;;;;5068545;28;20029;-75
2021/06/04 04:15:17;;;;;;;6.25;4.70;;;18.60;67.80;;;;;;5050429;28;20124;-75
2021/06/04 04:17:46;;;;;;;7.15;4.53;;;18.60;69.10;;;;;;5062477;28;20116;-75
2021/06/04 04:20:20;;;;;;;5.88;4.43;;;18.60;68.00;;;;;;5067829;28;20067;-75
2021/06/04 04:22:45;;;;;;;7.47;4.32;;;18.70;67.40;;;;;;5068205;28;20724;-75
2021/06/04 04:25:12;;;;;;;8.88;3.75;;;18.70;67.40;;;;;;5068414;28;20047;-75
2021/06/04 04:27:39;;;;;;;5.88;4.05;;;18.80;66.00;;;;;;5066706;28;20086;-75
2021/06/04 04:30:10;;;;;;;7.95;4.10;;;18.80;67.50;;;;;;5067098;28;20392;-75
2021/06/04 04:32:37;;;;;;;7.82;4.20;;;18.90;64.30;;;;;;5071015;28;20020;-75
2021/06/04 04:35:06;;;;;;;9.27;3.90;;;18.90;64.60;;;;;;5071442;28;20032;-75
2021/06/04 04:37:31;;;;;;;8.05;4.93;;;18.90;64.80;;;;;;5053854;28;20035;-75
2021/06/04 04:39:57;;;;;;;7.70;4.53;;;18.90;65.40;;;;;;5067841;28;20103;-76
2021/06/04 04:42:23;;;;;;;6.88;4.32;;;18.90;66.60;;;;;;5070249;28;20025;-80
2021/06/04 04:44:50;;;;;;;11.07;4.38;;;18.80;67.20;;;;;;5069692;28;20028;-78
2021/06/04 04:47:18;;;;;;;5.13;3.95;;;18.80;69.20;;;;;;5070685;28;20494;-81
2021/06/04 04:49:44;;;;;;;7.22;4.30;;;18.80;70.20;;;;;;5070717;28;20033;-82
2021/06/04 04:52:11;;;;;;;7.43;4.60;;;18.70;72.20;;;;;;5069379;28;20445;-75
2021/06/04 04:54:43;;;;;;;6.03;4.18;;;18.70;70.90;;;;;;5073915;28;20048;-75
2021/06/04 04:57:10;;;;;;;4.88;4.18;;;18.60;69.20;;;;;;5074821;28;20075;-76
2021/06/04 04:59:36;;;;;;;5.85;4.30;;;18.60;69.70;;;;;;5070342;28;20020;-76
2021/06/04 05:02:02;;;;;;;6.70;3.80;;;18.60;73.40;;;;;;5064346;28;20028;-76
2021/06/04 05:04:27;;;;;;;10.82;4.60;;;18.60;72.30;;;;;;5044161;28;20041;-76
2021/06/04 05:06:53;;;;;;;6.20;4.10;;;18.50;76.40;;;;;;5069337;28;20036;-76
2021/06/04 05:09:19;;;;;;;4.97;4.22;;;18.50;77.40;;;;;;5069033;28;20360;-76
2021/06/04 05:11:46;;;;;;;6.45;4.72;;;18.50;73.10;;;;;;5072935;28;20024;-77
2021/06/04 05:14:12;;;;;;;7.57;4.65;;;18.50;73.20;;;;;;5072348;28;20024;-77
2021/06/04 05:16:37;;;;;;;6.65;4.75;;;18.60;74.80;;;;;;5070766;28;20432;-78
2021/06/04 05:19:05;;;;;;;9.25;4.95;;;18.60;73.00;;;;;;5069934;28;20069;-77
2021/06/04 05:21:32;;;;;;;6.82;5.20;;;18.60;71.20;;;;;;5068531;28;20086;-84
2021/06/04 05:23:58;;;;;;;6.40;4.57;;;18.60;72.10;;;;;;5070003;28;20029;-78
2021/06/04 05:26:24;;;;;;;9.63;4.15;;;18.60;69.80;;;;;;5072311;28;20239;-83
2021/06/04 05:28:50;;;;;;;6.55;4.30;;;18.60;70.70;;;;;;5064246;28;20028;-82
2021/06/04 05:31:18;;;;;;;6.22;4.43;;;18.60;70.60;;;;;;5067561;28;20530;-83
2021/06/04 05:33:47;;;;;;;7.63;4.60;;;18.60;69.80;;;;;;5070222;28;20029;-83
2021/06/04 05:36:19;;;;;;;8.88;4.55;;;18.70;70.30;;;;;;5069506;28;20127;-83
2021/06/04 05:38:46;;;;;;;10.02;4.85;;;18.70;72.60;;;;;;5069928;28;20619;-83
2021/06/04 05:41:12;;;;;;;9.75;4.85;;;18.70;72.00;;;;;;5069963;28;20073;-83
2021/06/04 05:43:40;;;;;;;6.45;4.88;;;18.70;70.40;;;;;;5067781;28;20039;-83
2021/06/04 05:46:09;;;;;;;14.85;5.60;;;18.70;72.90;;;;;;5062466;28;20028;-83
2021/06/04 05:48:35;;;;;;;4.85;4.32;;;18.70;72.40;;;;;;5069785;28;20024;-82
2021/06/04 05:51:13;;;;;;;7.38;4.75;;;18.80;73.80;;;;;;5069693;28;20052;-82
2021/06/04 05:53:39;;;;;;;8.18;4.85;;;18.70;74.30;;;;;;5069455;28;20053;-82
2021/06/04 05:56:08;;;;;;;6.88;5.22;;;18.70;76.70;;;;;;5061662;28;20111;-82
2021/06/04 05:58:35;;;;;;;5.95;4.72;;;18.60;78.00;;;;;;5069520;28;20052;-82
2021/06/04 06:01:03;;;;;;;9.80;5.20;;;18.60;81.60;;;;;;5069246;28;20056;-82
2021/06/04 06:03:32;;;;;;;11.68;5.30;;;18.50;83.20;;;;;;5051005;28;20119;-82
2021/06/04 06:05:58;;;;;;;6.78;5.30;;;18.50;82.50;;;;;;5068685;28;20076;-82
2021/06/04 06:08:23;;;;;;;9.05;5.82;;;18.50;85.70;;;;;;5050883;28;20021;-82
2021/06/04 06:10:49;;;;;;;8.07;5.70;;;18.40;86.80;;;;;;5065893;28;20077;-82
2021/06/04 06:13:15;;;;;;;11.27;5.65;;;18.40;85.30;;;;;;5067141;28;20025;-83
2021/06/04 06:15:41;;;;;;;10.68;5.75;;;18.30;86.10;;;;;;5061634;28;20025;-82
2021/06/04 06:18:07;;;;;;;7.15;5.38;;;18.30;86.20;;;;;;5065169;28;20108;-82
2021/06/04 06:20:36;;;;;;;7.78;5.78;;;18.30;90.10;;;;;;5063197;28;20124;-82
2021/06/04 06:23:02;;;;;;;9.05;5.30;;;18.20;93.30;;;;;;5068711;28;20032;-82
2021/06/04 06:25:33;;;;;;;9.85;5.90;;;18.10;94.30;;;;;;5067094;28;20036;-81
2021/06/04 06:27:59;;;;;;;9.75;6.28;;;18.00;95.80;;;;;;5066973;28;20121;-81
2021/06/04 06:30:27;;;;;;;9.25;5.43;;;18.00;96.00;;;;;;5059369;28;20033;-81
2021/06/04 06:32:53;;;;;;;10.00;6.25;;;18.00;95.80;;;;;;5067625;28;20024;-81
2021/06/04 06:35:41;;;;;;;11.30;6.80;;;18.10;95.90;;;;;;5062887;28;20105;-81
2021/06/04 06:38:07;;;;;;;11.18;6.07;;;18.00;96.40;;;;;;5069281;28;20436;-81
2021/06/04 06:40:34;;;;;;;12.85;5.75;;;18.10;96.40;;;;;;5068598;28;20808;-81
2021/06/04 06:42:59;;;;;;;13.45;6.60;;;18.10;97.70;;;;;;5068221;28;20039;-79
2021/06/04 06:45:27;;;;;;;7.88;5.90;;;18.10;96.50;;;;;;5068451;28;20024;-81
2021/06/04 06:47:54;;;;;;;13.05;6.43;;;18.10;95.40;;;;;;5069166;28;20082;-82
2021/06/04 06:50:20;;;;;;;13.75;6.13;;;18.10;96.40;;;;;;5068403;28;20044;-82
2021/06/04 06:52:47;;;;;;;12.27;6.00;;;18.20;95.90;;;;;;5063686;28;20442;-82
2021/06/04 06:55:13;;;;;;;11.13;6.10;;;18.20;95.80;;;;;;5068641;28;20135;-82
2021/06/04 06:57:39;;;;;;;11.00;6.25;;;18.30;95.90;;;;;;5069385;28;20158;-81
2021/06/04 07:00:26;;;;;;;14.32;5.85;;;18.30;94.80;;;;;;5068084;28;20032;-81
2021/06/04 07:02:52;;;;;;;6.70;5.60;;;18.30;94.70;;;;;;5062981;28;20020;-76
2021/06/04 07:05:19;;;;;;;15.15;6.38;;;18.30;93.40;;;;;;5062393;28;20027;-75
2021/06/04 07:07:44;;;;;;;11.43;5.80;;;18.30;94.40;;;;;;5060133;28;20075;-77
2021/06/04 07:10:13;;;;;;;10.48;6.28;;;18.30;95.10;;;;;;5063561;28;20516;-79
2021/06/04 07:12:39;;;;;;;11.95;6.35;;;18.30;94.50;;;;;;5063189;28;20145;-84
2021/06/04 07:15:10;;;;;;;8.90;6.00;;;18.40;94.20;;;;;;5063938;28;20027;-84
2021/06/04 07:17:38;;;;;;;;;;;18.50;95.20;;;;;;5066891;28;20013;-75
2021/06/04 07:20:05;;;;;;;10.57;6.22;;;18.50;94.70;;;;;;5059681;28;19920;-86
2021/06/04 07:22:31;;;;;;;12.95;6.20;;;18.60;95.30;;;;;;5059901;28;20028;-77
2021/06/04 07:24:58;;;;;;;10.27;6.88;;;18.60;94.90;;;;;;5067801;28;20021;-78
2021/06/04 07:27:23;;;;;;;9.20;6.28;;;18.60;95.30;;;;;;5065419;28;20020;-77
2021/06/04 07:29:49;;;;;;;9.07;6.05;;;18.60;94.20;;;;;;5066513;28;20390;-79
2021/06/04 07:32:14;;;;;;;9.30;6.03;;;18.60;94.60;;;;;;5066439;28;20044;-76
2021/06/04 07:34:40;;;;;;;11.63;6.28;;;18.60;93.80;;;;;;5071755;28;20031;-76
2021/06/04 07:37:06;;;;;;;11.13;6.43;;;18.60;93.90;;;;;;5072834;28;20029;-76
2021/06/04 07:39:34;;;;;;;9.18;5.53;;;18.70;93.30;;;;;;5064249;28;20058;-76
2021/06/04 07:42:03;;;;;;;15.95;6.65;;;18.60;92.80;;;;;;5056073;28;20029;-76
2021/06/04 07:44:28;;;;;;;9.65;6.60;;;18.60;93.30;;;;;;5066505;28;20029;-78
2021/06/04 07:46:56;;;;;;;9.50;6.35;;;18.70;92.50;;;;;;5068332;28;20094;-78
2021/06/04 07:49:23;;;;;;;8.02;6.43;;;18.80;92.80;;;;;;5066882;28;20056;-78
2021/06/04 07:51:52;;;;;;;9.18;6.05;;;18.80;92.00;;;;;;5065665;28;20029;-78
2021/06/04 07:54:20;;;;;;;9.43;5.78;;;18.90;91.70;;;;;;5066993;28;20624;-77
2021/06/04 07:56:47;;;;;;;8.60;6.35;;;18.90;92.10;;;;;;5068023;28;20082;-78
2021/06/04 07:59:13;;;;;;;14.38;6.10;;;18.90;92.10;;;;;;5065806;28;20032;-78
2021/06/04 08:01:40;;;;;;;8.82;6.40;;;18.90;92.10;;;;;;5058255;28;20488;-77
2021/06/04 08:04:07;;;;;;;7.38;6.20;;;19.00;91.80;;;;;;5068757;28;20032;-78
2021/06/04 08:06:32;;;;;;;10.05;6.43;;;19.10;91.30;;;;;;5068129;28;20039;-78
2021/06/04 08:08:58;;;;;;;10.82;5.82;;;19.10;91.00;;;;;;5071911;28;20032;-77
2021/06/04 08:11:28;;;;;;;8.77;6.15;;;19.20;91.20;;;;;;5070456;28;20036;-78
2021/06/04 08:13:59;;;;;;;8.38;6.25;;;19.30;90.80;;;;;;5071874;28;20059;-77
2021/06/04 08:16:26;;;;;;;10.90;6.28;;;19.40;90.50;;;;;;5058408;28;20033;-77
2021/06/04 08:18:52;;;;;;;13.73;6.18;;;19.50;90.70;;;;;;5071657;28;20085;-77
2021/06/04 08:21:24;;;;;;;11.90;5.88;;;19.60;90.10;;;;;;5067778;28;20313;-78
2021/06/04 08:23:50;;;;;;;12.80;6.15;;;19.70;90.50;;;;;;5062223;28;20033;-77
2021/06/04 08:26:21;;;;;;;9.25;6.43;;;19.80;88.40;;;;;;5063258;28;20442;-78
2021/06/04 08:29:05;;;;;;;14.63;6.40;;;19.80;87.50;;;;;;5065819;28;20115;-77
2021/06/04 08:31:30;;;;;;;9.35;6.00;;;19.80;88.00;;;;;;5064820;28;20130;-76
2021/06/04 08:33:56;;;;;;;9.80;6.70;;;19.80;87.10;;;;;;5060301;28;20033;-76
2021/06/04 08:36:26;;;;;;;9.32;6.25;;;19.80;89.40;;;;;;5071420;28;20083;-77
2021/06/04 08:38:55;;;;;;;7.72;5.97;;;19.80;87.90;;;;;;5068338;28;20028;-78
2021/06/04 08:41:47;;;;;;;10.65;6.30;;;19.80;88.10;;;;;;5068413;28;20070;-77
2021/06/04 08:44:31;;;;;;;;;;;19.70;88.50;;;;;;5071516;28;20141;-78
2021/06/04 08:47:18;;;;;;;10.20;6.00;;;19.80;88.60;;;;;;5058093;28;19966;-80
2021/06/04 08:50:09;;;;;;;10.57;5.60;;;19.80;87.50;;;;;;5069406;28;20033;-77
2021/06/04 08:52:59;;;;;;;13.02;5.85;;;19.80;85.50;;;;;;5068572;28;20029;-76
2021/06/04 08:55:44;;;;;;;10.13;5.80;;;19.70;84.70;;;;;;5069239;28;20033;-76
2021/06/04 08:58:39;;;;;;;14.85;5.80;;;19.70;85.10;;;;;;5056295;28;20024;-77
2021/06/04 09:01:12;;;;;;;10.07;6.03;;;19.70;84.90;;;;;;5061486;28;20029;-76
2021/06/04 09:03:52;;;;;;;5.85;4.43;;;19.60;84.90;;;;;;5066086;28;20107;-79
2021/06/04 09:06:45;;;;;;;8.35;5.65;;;19.60;84.70;;;;;;5063283;28;20082;-77
2021/06/04 09:09:21;;;;;;;7.85;4.80;;;19.50;84.50;;;;;;5068481;28;20020;-73
2021/06/04 09:11:53;;;;;;;9.55;5.53;;;19.40;85.00;;;;;;5070623;28;20544;-74
2021/06/04 09:14:18;;;;;;;8.38;5.55;;;19.30;84.30;;;;;;5060989;28;20408;-73
2021/06/04 09:16:55;;;;;;;10.30;5.53;;;19.30;85.50;;;;;;5067788;28;20759;-73
2021/06/04 09:19:26;;;;;;;6.95;5.35;;;19.20;84.10;;;;;;5060042;28;20024;-73
2021/06/04 09:21:53;;;;;;;8.25;5.75;;;19.20;86.80;;;;;;5058005;28;20023;-73
2021/06/04 09:24:29;;;;;;;9.68;5.90;;;19.20;87.90;;;;;;5055232;28;20038;-73
2021/06/04 09:26:56;;;;;;;10.05;5.57;;;19.20;88.80;;;;;;5058789;28;20028;-74
2021/06/04 09:29:25;;;;;;;9.57;5.63;;;19.20;88.70;;;;;;5068523;28;20395;-74
2021/06/04 09:31:57;;;;;;;7.63;5.50;;;19.20;89.90;;;;;;5068588;28;20028;-73
2021/06/04 09:34:26;;;;;;;9.95;5.32;;;19.20;90.20;;;;;;5062837;28;20028;-74
2021/06/04 09:37:13;;;;;;;10.63;6.10;;;19.20;90.60;;;;;;5050691;28;20482;-74
2021/06/04 09:39:45;;;;;;;11.00;5.97;;;19.10;91.00;;;;;;5067994;28;20017;-74
2021/06/04 09:42:21;;;;;;;9.43;5.45;;;19.10;91.00;;;;;;5068097;28;20503;-74
2021/06/04 09:45:10;;;;;;;9.20;5.75;;;19.20;90.70;;;;;;5067227;28;20475;-74
2021/06/04 09:47:45;;;;;;;9.10;5.53;;;19.20;90.80;;;;;;5047106;28;20049;-73
2021/06/04 09:50:35;;;;;;;8.95;5.85;;;19.20;92.20;;;;;;5062412;28;20037;-74
2021/06/04 09:53:32;;;;;;;12.30;5.93;;;19.20;91.80;;;;;;5056126;28;20044;-74
2021/06/04 09:56:06;;;;;;;11.32;5.85;;;19.20;92.10;;;;;;5058411;28;20036;-74
2021/06/04 09:58:46;;;;;;;10.13;5.70;;;19.20;93.00;;;;;;5065372;28;20043;-75
2021/06/04 10:01:15;;;;;;;12.13;6.45;;;19.30;93.50;;;;;;5069357;28;20080;-74
2021/06/04 10:03:40;;;;;;;12.82;7.05;;;19.20;93.10;;;;;;5057543;28;20506;-74
2021/06/04 10:06:06;;;;;;;9.88;6.10;;;19.20;93.00;;;;;;5055630;28;20029;-74
2021/06/04 10:08:44;;;;;;;12.05;6.68;;;19.20;93.30;;;;;;5055554;28;20045;-74
2021/06/04 10:11:21;;;;;;;10.52;6.47;;;19.10;94.00;;;;;;5064971;28;20029;-74
2021/06/04 10:13:55;;;;;;;12.40;6.18;;;19.10;93.80;;;;;;5064789;28;20033;-74
2021/06/04 10:19:31;;;;;;;10.82;6.35;;;19.20;93.60;;;;;;5068978;28;20035;-73
2021/06/04 10:22:05;;;;;;;12.85;6.72;;;19.30;92.80;;;;;;5064810;28;20029;-74
2021/06/04 10:24:37;;;;;;;11.77;6.82;;;19.40;93.00;;;;;;5056292;28;20063;-74
2021/06/04 10:27:08;;;;;;;8.50;6.40;;;19.50;91.90;;;;;;5061065;28;20036;-74
2021/06/04 10:29:35;;;;;;;11.20;7.50;;;19.70;94.00;;;;;;5056318;28;20111;-73
2021/06/04 10:32:15;;;;;;;15.07;7.25;;;19.70;95.40;;;;;;5064427;28;20062;-74
2021/06/04 10:34:57;;;;;;;9.52;7.28;;;19.70;95.50;;;;;;5067168;28;20021;-73
2021/06/04 10:37:31;;;;;;;13.68;6.70;;;19.60;95.90;;;;;;5062083;28;20399;-73
2021/06/04 10:40:06;;;;;;;12.48;7.22;;;19.50;97.10;;;;;;5067065;28;20115;-73
2021/06/04 10:43:05;;;;;;;10.80;7.85;;;19.40;98.00;;;;;;5063543;28;20031;-76
2021/06/04 10:45:35;;;;;;;11.27;7.88;;;19.30;97.40;;;;;;5059244;28;20036;-73
2021/06/04 10:48:36;;;;;;;15.45;7.65;;;19.20;98.20;;;;;;5066849;28;20041;-73
2021/06/04 10:51:13;;;;;;;11.48;7.28;;;19.20;99.50;;;;;;5060660;28;20352;-74
2021/06/04 10:53:48;;;;;;;9.77;6.93;;;19.10;99.60;;;;;;5059798;28;20044;-73
2021/06/04 10:56:22;;;;;;;13.15;7.65;;;19.20;99.90;;;;;;5062827;28;20044;-73
2021/06/04 10:59:25;;;;;;;12.85;8.48;;;19.30;99.80;;;;;;5063547;28;20078;-74
2021/06/04 11:01:59;;;;;;;10.63;6.78;;;19.40;99.90;;;;;;5065215;28;20368;-74
2021/06/04 11:04:46;;;;;;;9.65;6.47;;;19.60;99.90;;;;;;5057029;28;20067;-74
2021/06/04 11:07:28;;;;;;;8.82;6.70;;;19.70;98.80;;;;;;5065383;28;20399;-74
2021/06/04 11:10:32;;;;;;;9.60;6.50;;;19.90;98.30;;;;;;5064085;28;20503;-74
2021/06/04 11:13:19;;;;;;;8.45;6.50;;;20.10;97.50;;;;;;5038760;28;20372;-82
2021/06/04 11:15:54;;;;;;;9.43;6.47;;;20.40;96.00;;;;;;5056805;28;20028;-76
2021/06/04 11:18:41;;;;;;;11.05;6.80;;;20.70;95.50;;;;;;5061802;28;20033;-78
2021/06/04 11:21:34;;;;;;;10.70;7.03;;;20.90;92.60;;;;;;5062839;28;20071;-79
2021/06/04 11:24:06;;;;;;;12.00;6.20;;;21.20;91.10;;;;;;5049620;28;20036;-79
2021/06/04 11:26:42;;;;;;;9.40;6.30;;;21.50;91.00;;;;;;5063524;28;20157;-79
2021/06/04 11:29:17;;;;;;;10.43;6.60;;;21.90;89.40;;;;;;5056179;28;20058;-79
2021/06/04 11:31:57;;;;;;;8.18;4.47;;;22.40;90.00;;;;;;5067602;28;20036;-78
2021/06/04 11:34:45;;;;;;;11.05;5.32;;;22.70;75.90;;;;;;5061710;28;20028;-78
2021/06/04 11:37:16;;;;;;;7.30;4.90;;;22.90;74.50;;;;;;5054760;28;20055;-78
2021/06/04 11:39:45;;;;;;;7.07;5.70;;;23.00;74.50;;;;;;5060977;28;20036;-79
2021/06/04 11:42:22;;;;;;;6.10;4.72;;;22.80;76.90;;;;;;5069348;28;20064;-78
2021/06/04 11:44:52;;;;;;;6.70;4.82;;;22.50;74.20;;;;;;5069696;28;20028;-77
2021/06/04 11:47:17;;;;;;;9.48;5.63;;;22.40;77.10;;;;;;5058502;28;20055;-78
2021/06/04 11:49:55;;;;;;;10.98;6.10;;;22.30;76.90;;;;;;5057905;28;20037;-78
2021/06/04 11:52:27;;;;;;;9.18;6.47;;;22.30;78.80;;;;;;5070698;28;20063;-79
2021/06/04 11:55:31;;;;;;;7.30;5.70;;;22.40;78.80;;;;;;5065072;28;20041;-78
2021/06/04 11:58:17;;;;;;;9.38;5.43;;;22.50;78.00;;;;;;5057255;28;20384;-78
2021/06/04 12:00:49;;;;;;;7.55;5.15;;;22.70;76.90;;;;;;5063276;28;20052;-79
2021/06/04 12:03:24;;;;;;;8.93;4.85;;;23.00;74.20;;;;;;5064633;28;20052;-79
2021/06/04 12:06:17;;;;;;;5.00;4.47;;;23.50;74.00;;;;;;5067234;28;20025;-79
2021/06/04 12:08:44;;;;;;;6.43;4.95;;;24.10;73.60;;;;;;5063808;28;20032;-79
2021/06/04 12:11:15;;;;;;;13.40;4.82;;;24.60;72.30;;;;;;5056793;28;20402;-78
2021/06/04 12:13:49;;;;;;;5.65;4.43;;;24.60;66.00;;;;;;5057043;28;20032;-79
2021/06/04 12:16:27;;;;;;;8.93;5.00;;;24.50;68.80;;;;;;5064788;28;20498;-78
2021/06/04 12:19:16;;;;;;;4.82;3.88;;;24.30;68.70;;;;;;5068532;28;20036;-79
2021/06/04 12:21:45;;;;;;;5.82;3.90;;;24.20;66.90;;;;;;5072079;28;20436;-79
2021/06/04 12:24:16;;;;;;;7.32;4.20;;;24.30;66.70;;;;;;5069309;28;20031;-79
2021/06/04 12:26:53;;;;;;;5.75;3.92;;;25.00;65.50;;;;;;5062490;28;20085;-78
2021/06/04 12:29:22;;;;;;;6.68;3.95;;;25.40;62.70;;;;;;5061711;28;20871;-79
2021/06/04 12:31:55;;;;;;;5.03;3.42;;;25.50;61.00;;;;;;5067560;28;20032;-79
2021/06/04 12:34:35;;;;;;;4.70;3.25;;;25.20;60.10;;;;;;5059536;28;20115;-78
2021/06/04 12:37:07;;;;;;;4.57;3.38;;;24.90;61.90;;;;;;5067731;28;20024;-79
2021/06/04 12:39:39;;;;;;;5.72;3.20;;;24.70;62.20;;;;;;5062656;28;20155;-78
2021/06/04 12:42:15;;;;;;;8.52;4.82;;;24.40;61.30;;;;;;5059224;28;20111;-76
2021/06/04 12:44:55;;;;;;;4.72;3.88;;;24.20;63.70;;;;;;5060347;28;20040;-76
2021/06/04 12:47:49;;;;;;;10.98;4.65;;;24.10;64.20;;;;;;5069540;28;20147;-77
2021/06/04 12:50:27;;;;;;;8.35;4.20;;;24.60;64.20;;;;;;5058919;28;20550;-82
2021/06/04 12:53:13;;;;;;;8.05;4.30;;;24.70;64.50;;;;;;5073124;28;20028;-80
2021/06/04 12:55:42;;;;;;;8.98;4.25;;;24.80;65.00;;;;;;5072520;28;20075;-89
2021/06/04 12:58:25;;;;;;;8.80;4.25;;;24.70;64.80;;;;;;5074629;28;20024;-80
2021/06/04 13:00:52;;;;;;;7.85;4.15;;;24.60;65.10;;;;;;5059920;28;20028;-81
2021/06/04 13:03:27;;;;;;;5.80;3.70;;;24.70;64.90;;;;;;5064366;28;20398;-80
2021/06/04 13:05:56;;;;;;;5.47;4.57;;;24.70;61.50;;;;;;5065544;28;20545;-83
2021/06/04 13:08:36;;;;;;;7.85;3.90;;;25.10;63.20;;;;;;5065644;28;20119;-84
2021/06/04 13:11:03;;;;;;;3.97;3.58;;;26.40;62.00;;;;;;5066231;28;20053;-87
2021/06/04 13:13:38;;;;;;;5.10;4.00;;;28.10;57.60;;;;;;5059913;28;20029;-79
2021/06/04 13:16:23;;;;;;;4.05;3.50;;;29.40;52.60;;;;;;5069653;28;20040;-80